createdAt,value
2022-10-02T00:02:25.189Z,100734.72
2022-10-02T00:07:42.453Z,100735.28
2022-10-02T00:12:45.529Z,100746.34
2022-10-02T00:17:51.100Z,100760.44
2022-10-02T00:23:00.723Z,100763.03
2022-10-02T00:28:02.283Z,100771.78
2022-10-02T00:33:19.461Z,100765.66
2022-10-02T00:38:39.596Z,100770.06
2022-10-02T00:43:56.041Z,100765.78
2022-10-02T00:49:11.973Z,100764.03
2022-10-02T00:54:41.381Z,100753.53
2022-10-02T01:00:06.067Z,100743.13
2022-10-02T01:05:09.113Z,100762.34
2022-10-02T01:10:12.860Z,100756.06
2022-10-02T01:15:20.547Z,100765.97
2022-10-02T01:20:46.624Z,100759.28
2022-10-02T01:25:48.182Z,100758.41
2022-10-02T01:30:54.639Z,100771.31
2022-10-02T01:35:56.232Z,100775.78
2022-10-02T01:40:57.643Z,100780.44
2022-10-02T01:46:12.150Z,100793.38
2022-10-02T01:51:32.499Z,100804.94
2022-10-02T01:56:52.201Z,100793.66
2022-10-02T02:02:24.766Z,100793.78
2022-10-02T02:07:46.542Z,100790.13
2022-10-02T02:12:54.109Z,100779.47
2022-10-02T02:18:03.083Z,100791.88
2022-10-02T02:23:09.716Z,100783.13
2022-10-02T02:28:15.216Z,100793.72
2022-10-02T02:33:22.993Z,100796.25
2022-10-02T02:38:32.644Z,100796.06
2022-10-02T02:43:41.312Z,100798.72
2022-10-02T02:48:54.117Z,100800.34
2022-10-02T02:54:10.686Z,100807.22
2022-10-02T02:59:14.540Z,100801.06
2022-10-02T03:04:15.977Z,100815.03
2022-10-02T03:09:23.428Z,100825.78
2022-10-02T03:14:58.095Z,100829.09
2022-10-02T03:20:02.566Z,100825.44
2022-10-02T03:25:24.046Z,100826.91
2022-10-02T03:30:27.016Z,100830.31
2022-10-02T03:35:29.910Z,100825.75
2022-10-02T03:40:31.343Z,100832.41
2022-10-02T03:45:50.402Z,100833.09
2022-10-02T03:50:52.669Z,100897.97
2022-10-02T03:56:00.752Z,100895.84
2022-10-02T04:01:12.561Z,100854.72
2022-10-02T04:06:36.181Z,100831.19
2022-10-02T04:11:46.418Z,100825.09
2022-10-02T04:17:02.049Z,100830.75
2022-10-02T04:22:18.529Z,100824.16
2022-10-02T04:27:25.945Z,100832.63
2022-10-02T04:32:34.416Z,100834.16
2022-10-02T04:37:42.925Z,100849.31
2022-10-02T04:43:00.226Z,100836.78
2022-10-02T04:48:32.189Z,100837.88
2022-10-02T04:53:55.819Z,100856.75
2022-10-02T04:59:38.244Z,100861.31
2022-10-02T05:04:42.644Z,100859.56
2022-10-02T05:09:56.625Z,100864.88
2022-10-02T05:15:03.925Z,100860.34
2022-10-02T05:20:24.445Z,100877.44
2022-10-02T05:25:43.749Z,100873.66
2022-10-02T05:31:07.018Z,100885.44
2022-10-02T05:36:30.100Z,100886.69
2022-10-02T05:41:49.982Z,100889.91
2022-10-02T05:47:01.368Z,100882.81
2022-10-02T05:52:13.590Z,100893.09
2022-10-02T05:57:41.391Z,100889.25
2022-10-02T06:03:23.037Z,100906.94
2022-10-02T06:08:47.119Z,100906.03
2022-10-02T06:14:00.541Z,100906.00
2022-10-02T06:19:15.861Z,100915.53
2022-10-02T06:24:59.029Z,100928.34
2022-10-02T06:30:05.116Z,100926.53
2022-10-02T06:35:12.021Z,100937.56
2022-10-02T06:40:42.813Z,100942.28
2022-10-02T06:45:58.421Z,100937.84
2022-10-02T06:51:21.755Z,100949.19
2022-10-02T06:56:45.323Z,100958.44
2022-10-02T07:01:57.492Z,100952.13
2022-10-02T07:07:16.580Z,100967.81
2022-10-02T07:12:37.624Z,100967.13
2022-10-02T07:17:57.825Z,100960.25
2022-10-02T07:23:16.281Z,100962.81
2022-10-02T07:28:32.898Z,100973.28
2022-10-02T07:33:44.705Z,100993.16
2022-10-02T07:39:01.242Z,100992.78
2022-10-02T07:44:11.925Z,101006.09
2022-10-02T07:49:22.538Z,101005.81
2022-10-02T07:54:41.812Z,101002.34
2022-10-02T07:59:44.541Z,101013.94
2022-10-02T08:04:47.132Z,101026.28
2022-10-02T08:09:52.564Z,101022.59
2022-10-02T08:14:55.755Z,101036.88
2022-10-02T08:20:04.717Z,101038.25
2022-10-02T08:25:28.172Z,101047.09
2022-10-02T08:30:29.680Z,101044.28
2022-10-02T08:35:49.155Z,101049.34
2022-10-02T08:41:28.199Z,101040.16
2022-10-02T08:46:32.353Z,101046.91
2022-10-02T08:51:51.008Z,101049.72
2022-10-02T08:57:26.258Z,101056.66
2022-10-02T09:03:01.029Z,101064.84
2022-10-02T09:08:30.121Z,101065.69
2022-10-02T09:14:10.300Z,101069.53
2022-10-02T09:19:19.211Z,101079.56
2022-10-02T09:24:59.969Z,101082.16
2022-10-02T09:30:12.802Z,101075.88
2022-10-02T09:35:28.793Z,101080.22
2022-10-02T09:40:45.259Z,101088.09
2022-10-02T09:45:59.016Z,101087.84
2022-10-02T09:51:19.046Z,101087.00
2022-10-02T09:56:34.715Z,101085.03
2022-10-02T10:01:45.852Z,101099.94
2022-10-02T10:07:02.562Z,101103.84
2022-10-02T10:12:49.592Z,101107.03
2022-10-02T10:18:05.758Z,101120.34
2022-10-02T10:23:35.809Z,101115.97
2022-10-02T10:28:46.565Z,101113.34
2022-10-02T10:34:02.610Z,101126.72
2022-10-02T10:39:45.084Z,101120.06
2022-10-02T10:45:05.702Z,101138.63
2022-10-02T10:50:25.658Z,101136.38
2022-10-02T10:55:33.565Z,101138.25
2022-10-02T11:01:14.485Z,101146.78
2022-10-02T11:06:53.125Z,101147.16
2022-10-02T11:12:28.117Z,101153.66
2022-10-02T11:18:03.034Z,101154.38
2022-10-02T11:23:32.031Z,101164.25
2022-10-02T11:28:59.302Z,101169.34
2022-10-02T11:34:20.536Z,101157.31
2022-10-02T11:39:43.108Z,101175.34
2022-10-02T11:45:23.096Z,101192.06
2022-10-02T11:50:39.885Z,101187.75
2022-10-02T11:55:50.466Z,101197.34
2022-10-02T12:01:21.919Z,101193.22
2022-10-02T12:06:53.026Z,101180.38
2022-10-02T12:12:29.897Z,101198.00
2022-10-02T12:17:46.460Z,101207.09
2022-10-02T12:23:35.923Z,101203.69
2022-10-02T12:28:52.308Z,101210.84
2022-10-02T12:34:21.333Z,101202.16
2022-10-02T12:39:41.765Z,101213.66
2022-10-02T12:45:01.713Z,101219.66
2022-10-02T12:50:19.196Z,101228.41
2022-10-02T12:56:08.733Z,101231.72
2022-10-02T13:01:31.801Z,101229.13
2022-10-02T13:06:54.264Z,101228.31
2022-10-02T13:12:12.531Z,101240.25
2022-10-02T13:17:30.266Z,101245.28
2022-10-02T13:22:49.961Z,101253.09
2022-10-02T13:28:17.962Z,101244.78
2022-10-02T13:33:30.023Z,101247.13
2022-10-02T13:38:53.969Z,101253.63
2022-10-02T13:44:01.745Z,101255.03
2022-10-02T13:49:43.350Z,101267.72
2022-10-02T13:54:53.914Z,101287.41
2022-10-02T14:00:23.734Z,101263.84
2022-10-02T14:05:31.461Z,101285.53
2022-10-02T14:11:11.731Z,101298.34
2022-10-02T14:16:34.884Z,101297.72
2022-10-02T14:21:41.993Z,101301.09
2022-10-02T14:27:25.586Z,101304.16
2022-10-02T14:32:47.237Z,101304.13
2022-10-02T14:38:26.701Z,101301.03
2022-10-02T14:43:36.801Z,101312.94
2022-10-02T14:49:12.440Z,101316.16
2022-10-02T14:54:41.823Z,101324.94
2022-10-02T15:00:01.003Z,101324.47
2022-10-02T15:05:27.207Z,101343.16
2022-10-02T15:10:34.451Z,101335.22
2022-10-02T15:16:13.116Z,101350.84
2022-10-02T15:21:26.933Z,101365.00
2022-10-02T15:26:46.590Z,101364.41
2022-10-02T15:32:15.659Z,101372.69
2022-10-02T15:37:35.406Z,101383.66
2022-10-02T15:42:58.581Z,101384.59
2022-10-02T15:48:19.528Z,101396.16
2022-10-02T15:53:40.077Z,101411.53
2022-10-02T15:58:53.539Z,101416.72
2022-10-02T16:04:07.787Z,101425.06
2022-10-02T16:09:16.259Z,101436.03
2022-10-02T16:14:36.422Z,101441.38
2022-10-02T16:19:46.805Z,101441.94
2022-10-02T16:25:12.690Z,101453.88
2022-10-02T16:30:16.415Z,101471.75
2022-10-02T16:35:43.583Z,101476.59
2022-10-02T16:40:59.193Z,101478.44
2022-10-02T16:46:38.735Z,101488.31
2022-10-02T16:51:51.459Z,101499.09
2022-10-02T16:57:00.775Z,101497.94
2022-10-02T17:02:17.954Z,101498.34
2022-10-02T17:07:31.102Z,101515.75
2022-10-02T17:12:46.332Z,101511.88
2022-10-02T17:18:13.347Z,101521.09
2022-10-02T17:23:25.058Z,101530.38
2022-10-02T17:28:53.742Z,101536.00
2022-10-02T17:34:11.605Z,101545.19
2022-10-02T17:39:24.916Z,101552.38
2022-10-02T17:44:33.934Z,101562.41
2022-10-02T17:49:59.153Z,101573.91
2022-10-02T17:55:40.736Z,101577.44
2022-10-02T18:01:06.269Z,101575.22
2022-10-02T18:06:24.490Z,101585.81
2022-10-02T18:11:43.763Z,101592.56
2022-10-02T18:17:14.154Z,101608.53
2022-10-02T18:22:24.861Z,101610.56
2022-10-02T18:27:45.053Z,101611.81
2022-10-02T18:32:58.468Z,101623.28
2022-10-02T18:38:12.368Z,101637.41
2022-10-02T18:43:35.506Z,101639.25
2022-10-02T18:48:51.922Z,101639.78
2022-10-02T18:54:07.725Z,101661.78
2022-10-02T18:59:45.607Z,101661.09
2022-10-02T19:04:57.736Z,101667.59
2022-10-02T19:10:26.140Z,101676.44
2022-10-02T19:15:32.374Z,101677.34
2022-10-02T19:20:42.573Z,101685.50
2022-10-02T19:25:47.405Z,101689.69
2022-10-02T19:30:53.336Z,101696.13
2022-10-02T19:35:54.875Z,101704.13
2022-10-02T19:41:00.731Z,101698.09
2022-10-02T19:46:05.549Z,101699.91
2022-10-02T19:51:16.935Z,101709.78
2022-10-02T19:56:29.369Z,101713.94
2022-10-02T20:01:43.927Z,101720.97
2022-10-02T20:06:52.304Z,101723.59
2022-10-02T20:12:20.884Z,101726.44
2022-10-02T20:17:22.762Z,101721.97
2022-10-02T20:22:35.890Z,101739.53
2022-10-02T20:27:58.827Z,101736.00
2022-10-02T20:33:06.805Z,101730.94
2022-10-02T20:38:18.033Z,101739.75
2022-10-02T20:43:36.969Z,101753.81
2022-10-02T20:49:09.749Z,101756.47
2022-10-02T20:54:25.266Z,101764.50
2022-10-02T20:59:51.431Z,101768.91
2022-10-02T21:05:36.311Z,101774.41
2022-10-02T21:11:12.908Z,101770.69
2022-10-02T21:16:29.393Z,101779.50
2022-10-02T21:22:08.630Z,101785.00
2022-10-02T21:27:40.939Z,101783.16
2022-10-02T21:32:45.384Z,101789.25
2022-10-02T21:38:19.726Z,101792.88
2022-10-02T21:44:00.089Z,101805.19
2022-10-02T21:49:27.767Z,101809.69
2022-10-02T21:55:02.918Z,101820.94
2022-10-02T22:00:22.179Z,101828.84
2022-10-02T22:05:55.562Z,101826.34
2022-10-02T22:11:33.627Z,101822.78
2022-10-02T22:16:57.546Z,101833.97
2022-10-02T22:22:35.863Z,101827.69
2022-10-02T22:27:43.456Z,101840.03
2022-10-02T22:33:08.777Z,101843.53
2022-10-02T22:38:19.353Z,101854.00
2022-10-02T22:43:47.969Z,101856.66
2022-10-02T22:49:04.673Z,101849.88
2022-10-02T22:54:18.407Z,101866.50
2022-10-02T22:59:41.721Z,101866.47
2022-10-02T23:05:11.177Z,101873.56
2022-10-02T23:10:42.812Z,101874.44
2022-10-02T23:16:05.369Z,101877.84
2022-10-02T23:21:23.233Z,101877.91
2022-10-02T23:26:31.761Z,101889.31
2022-10-02T23:31:41.890Z,101887.59
2022-10-02T23:36:57.681Z,101895.53
2022-10-02T23:41:59.296Z,101903.31
2022-10-02T23:47:09.910Z,101911.97
2022-10-02T23:52:26.640Z,101909.34
2022-10-02T23:57:59.031Z,101915.47
